sensor_id;sensor_type;location;lat;lon;timestamp;P1;durP1;ratioP1;P2;durP2;ratioP2
13291;SDS011;6714;53.056;8.690;2023-06-22T00:00:50;5.30;;;4.90;;
13291;SDS011;6714;53.056;8.690;2023-06-22T00:03:34;5.43;;;4.93;;
13291;SDS011;6714;53.056;8.690;2023-06-22T00:06:16;5.23;;;4.83;;
13291;SDS011;6714;53.056;8.690;2023-06-22T00:08:58;5.67;;;4.77;;
13291;SDS011;6714;53.056;8.690;2023-06-22T00:11:41;4.97;;;4.57;;
13291;SDS011;6714;53.056;8.690;2023-06-22T00:14:23;6.20;;;4.83;;
13291;SDS011;6714;53.056;8.690;2023-06-22T00:17:05;5.97;;;5.47;;
13291;SDS011;6714;53.056;8.690;2023-06-22T00:19:49;6.23;;;5.50;;
13291;SDS011;6714;53.056;8.690;2023-06-22T00:22:33;5.67;;;5.17;;
13291;SDS011;6714;53.056;8.690;2023-06-22T00:25:18;5.90;;;5.30;;
13291;SDS011;6714;53.056;8.690;2023-06-22T00:28:01;5.27;;;4.80;;
13291;SDS011;6714;53.056;8.690;2023-06-22T00:30:44;6.57;;;5.87;;
13291;SDS011;6714;53.056;8.690;2023-06-22T00:33:26;5.27;;;4.87;;
13291;SDS011;6714;53.056;8.690;2023-06-22T00:36:10;5.50;;;5.00;;
13291;SDS011;6714;53.056;8.690;2023-06-22T00:38:56;5.67;;;5.03;;
13291;SDS011;6714;53.056;8.690;2023-06-22T00:41:38;5.30;;;4.90;;
13291;SDS011;6714;53.056;8.690;2023-06-22T00:44:20;5.37;;;4.87;;
13291;SDS011;6714;53.056;8.690;2023-06-22T00:47:03;5.20;;;4.80;;
13291;SDS011;6714;53.056;8.690;2023-06-22T00:49:47;5.20;;;4.80;;
13291;SDS011;6714;53.056;8.690;2023-06-22T00:52:32;4.90;;;4.40;;
13291;SDS011;6714;53.056;8.690;2023-06-22T00:55:15;5.37;;;4.87;;
13291;SDS011;6714;53.056;8.690;2023-06-22T00:57:58;5.43;;;4.93;;
13291;SDS011;6714;53.056;8.690;2023-06-22T01:00:40;5.30;;;4.80;;
13291;SDS011;6714;53.056;8.690;2023-06-22T01:03:22;5.67;;;5.17;;
13291;SDS011;6714;53.056;8.690;2023-06-22T01:06:07;5.87;;;5.37;;
13291;SDS011;6714;53.056;8.690;2023-06-22T01:08:53;5.00;;;4.60;;
13291;SDS011;6714;53.056;8.690;2023-06-22T01:11:39;6.03;;;5.07;;
13291;SDS011;6714;53.056;8.690;2023-06-22T01:14:27;5.97;;;5.37;;
13291;SDS011;6714;53.056;8.690;2023-06-22T01:17:10;5.80;;;5.30;;
13291;SDS011;6714;53.056;8.690;2023-06-22T01:19:56;5.53;;;5.03;;
13291;SDS011;6714;53.056;8.690;2023-06-22T01:22:43;5.90;;;5.40;;
13291;SDS011;6714;53.056;8.690;2023-06-22T01:25:31;6.13;;;5.17;;
13291;SDS011;6714;53.056;8.690;2023-06-22T01:28:19;5.50;;;5.10;;
13291;SDS011;6714;53.056;8.690;2023-06-22T01:31:05;6.00;;;5.33;;
13291;SDS011;6714;53.056;8.690;2023-06-22T01:33:50;5.53;;;5.03;;
13291;SDS011;6714;53.056;8.690;2023-06-22T01:36:32;6.83;;;6.07;;
13291;SDS011;6714;53.056;8.690;2023-06-22T01:39:15;5.83;;;5.33;;
13291;SDS011;6714;53.056;8.690;2023-06-22T01:41:57;6.40;;;5.50;;
13291;SDS011;6714;53.056;8.690;2023-06-22T01:44:40;5.73;;;5.13;;
13291;SDS011;6714;53.056;8.690;2023-06-22T01:47:24;6.33;;;5.70;;
13291;SDS011;6714;53.056;8.690;2023-06-22T01:50:08;5.60;;;5.10;;
13291;SDS011;6714;53.056;8.690;2023-06-22T01:52:50;6.20;;;5.70;;
13291;SDS011;6714;53.056;8.690;2023-06-22T01:55:33;6.60;;;6.00;;
13291;SDS011;6714;53.056;8.690;2023-06-22T01:58:15;6.37;;;5.77;;
13291;SDS011;6714;53.056;8.690;2023-06-22T02:00:58;6.20;;;5.70;;
13291;SDS011;6714;53.056;8.690;2023-06-22T02:03:46;6.00;;;5.50;;
13291;SDS011;6714;53.056;8.690;2023-06-22T02:06:31;5.57;;;5.07;;
13291;SDS011;6714;53.056;8.690;2023-06-22T02:09:17;6.10;;;5.60;;
13291;SDS011;6714;53.056;8.690;2023-06-22T02:12:02;6.57;;;5.97;;
13291;SDS011;6714;53.056;8.690;2023-06-22T02:14:45;6.63;;;6.10;;
13291;SDS011;6714;53.056;8.690;2023-06-22T02:17:28;6.80;;;6.20;;
13291;SDS011;6714;53.056;8.690;2023-06-22T02:20:14;6.00;;;5.47;;
13291;SDS011;6714;53.056;8.690;2023-06-22T02:22:57;6.27;;;5.77;;
13291;SDS011;6714;53.056;8.690;2023-06-22T02:25:39;6.83;;;6.23;;
13291;SDS011;6714;53.056;8.690;2023-06-22T02:28:24;8.50;;;7.70;;
13291;SDS011;6714;53.056;8.690;2023-06-22T02:31:06;6.20;;;5.70;;
13291;SDS011;6714;53.056;8.690;2023-06-22T02:33:48;6.07;;;5.57;;
13291;SDS011;6714;53.056;8.690;2023-06-22T02:36:32;5.50;;;5.00;;
13291;SDS011;6714;53.056;8.690;2023-06-22T02:39:14;6.17;;;5.57;;
13291;SDS011;6714;53.056;8.690;2023-06-22T02:41:56;6.00;;;5.50;;
13291;SDS011;6714;53.056;8.690;2023-06-22T02:44:39;6.60;;;6.00;;
13291;SDS011;6714;53.056;8.690;2023-06-22T02:47:21;7.23;;;6.63;;
13291;SDS011;6714;53.056;8.690;2023-06-22T02:50:03;6.90;;;6.23;;
13291;SDS011;6714;53.056;8.690;2023-06-22T02:52:47;7.80;;;7.00;;
13291;SDS011;6714;53.056;8.690;2023-06-22T02:55:29;7.30;;;6.70;;
13291;SDS011;6714;53.056;8.690;2023-06-22T02:58:12;7.20;;;6.50;;
13291;SDS011;6714;53.056;8.690;2023-06-22T03:00:54;8.20;;;7.37;;
13291;SDS011;6714;53.056;8.690;2023-06-22T03:03:36;6.53;;;5.80;;
13291;SDS011;6714;53.056;8.690;2023-06-22T03:06:18;6.20;;;5.70;;
13291;SDS011;6714;53.056;8.690;2023-06-22T03:09:04;7.27;;;6.67;;
13291;SDS011;6714;53.056;8.690;2023-06-22T03:11:47;7.83;;;7.13;;
13291;SDS011;6714;53.056;8.690;2023-06-22T03:14:29;7.57;;;6.90;;
13291;SDS011;6714;53.056;8.690;2023-06-22T03:17:11;7.70;;;7.00;;
13291;SDS011;6714;53.056;8.690;2023-06-22T03:19:53;7.10;;;6.50;;
13291;SDS011;6714;53.056;8.690;2023-06-22T03:22:36;7.57;;;6.90;;
13291;SDS011;6714;53.056;8.690;2023-06-22T03:25:20;8.20;;;7.40;;
13291;SDS011;6714;53.056;8.690;2023-06-22T03:28:02;7.43;;;6.77;;
13291;SDS011;6714;53.056;8.690;2023-06-22T03:30:44;8.20;;;7.50;;
13291;SDS011;6714;53.056;8.690;2023-06-22T03:33:26;6.70;;;6.10;;
13291;SDS011;6714;53.056;8.690;2023-06-22T03:36:09;7.97;;;7.27;;
13291;SDS011;6714;53.056;8.690;2023-06-22T03:38:51;7.90;;;7.20;;
13291;SDS011;6714;53.056;8.690;2023-06-22T03:41:35;7.23;;;6.63;;
13291;SDS011;6714;53.056;8.690;2023-06-22T03:44:17;7.00;;;6.40;;
13291;SDS011;6714;53.056;8.690;2023-06-22T03:46:59;8.20;;;7.43;;
13291;SDS011;6714;53.056;8.690;2023-06-22T03:49:42;7.57;;;6.67;;
13291;SDS011;6714;53.056;8.690;2023-06-22T03:52:24;7.57;;;6.97;;
13291;SDS011;6714;53.056;8.690;2023-06-22T03:55:06;7.97;;;7.27;;
13291;SDS011;6714;53.056;8.690;2023-06-22T03:57:50;7.43;;;6.83;;
13291;SDS011;6714;53.056;8.690;2023-06-22T04:00:34;7.70;;;6.93;;
13291;SDS011;6714;53.056;8.690;2023-06-22T04:03:16;7.80;;;7.10;;
13291;SDS011;6714;53.056;8.690;2023-06-22T04:05:59;8.67;;;7.87;;
13291;SDS011;6714;53.056;8.690;2023-06-22T04:08:45;7.50;;;6.80;;
13291;SDS011;6714;53.056;8.690;2023-06-22T04:11:30;7.67;;;6.97;;
13291;SDS011;6714;53.056;8.690;2023-06-22T04:14:14;8.30;;;7.60;;
13291;SDS011;6714;53.056;8.690;2023-06-22T04:16:57;8.63;;;7.77;;
13291;SDS011;6714;53.056;8.690;2023-06-22T04:19:39;8.57;;;7.70;;
13291;SDS011;6714;53.056;8.690;2023-06-22T04:22:21;8.33;;;7.63;;
13291;SDS011;6714;53.056;8.690;2023-06-22T04:25:05;10.30;;;7.97;;
13291;SDS011;6714;53.056;8.690;2023-06-22T04:27:48;9.73;;;8.43;;
13291;SDS011;6714;53.056;8.690;2023-06-22T04:30:33;9.30;;;8.40;;
13291;SDS011;6714;53.056;8.690;2023-06-22T04:33:15;9.67;;;8.77;;
13291;SDS011;6714;53.056;8.690;2023-06-22T04:35:57;11.70;;;10.63;;
13291;SDS011;6714;53.056;8.690;2023-06-22T04:38:41;10.37;;;9.20;;
13291;SDS011;6714;53.056;8.690;2023-06-22T04:41:24;9.93;;;9.03;;
13291;SDS011;6714;53.056;8.690;2023-06-22T04:44:06;11.73;;;10.60;;
13291;SDS011;6714;53.056;8.690;2023-06-22T04:46:50;11.13;;;10.03;;
13291;SDS011;6714;53.056;8.690;2023-06-22T04:49:34;11.43;;;10.23;;
13291;SDS011;6714;53.056;8.690;2023-06-22T04:52:17;10.23;;;9.23;;
13291;SDS011;6714;53.056;8.690;2023-06-22T04:55:00;9.40;;;8.53;;
13291;SDS011;6714;53.056;8.690;2023-06-22T04:57:43;10.87;;;9.77;;
13291;SDS011;6714;53.056;8.690;2023-06-22T05:00:28;10.07;;;9.07;;
13291;SDS011;6714;53.056;8.690;2023-06-22T05:03:12;12.00;;;10.80;;
13291;SDS011;6714;53.056;8.690;2023-06-22T05:05:58;10.23;;;9.23;;
13291;SDS011;6714;53.056;8.690;2023-06-22T05:08:40;11.07;;;10.07;;
13291;SDS011;6714;53.056;8.690;2023-06-22T05:11:24;10.00;;;9.07;;
13291;SDS011;6714;53.056;8.690;2023-06-22T05:14:06;11.77;;;10.57;;
13291;SDS011;6714;53.056;8.690;2023-06-22T05:16:48;15.83;;;14.17;;
13291;SDS011;6714;53.056;8.690;2023-06-22T05:19:33;18.37;;;15.20;;
13291;SDS011;6714;53.056;8.690;2023-06-22T05:22:15;20.00;;;17.90;;
13291;SDS011;6714;53.056;8.690;2023-06-22T05:24:58;22.83;;;20.37;;
13291;SDS011;6714;53.056;8.690;2023-06-22T05:27:40;11.83;;;10.67;;
13291;SDS011;6714;53.056;8.690;2023-06-22T05:30:24;20.03;;;17.87;;
13291;SDS011;6714;53.056;8.690;2023-06-22T05:33:06;15.23;;;13.70;;
13291;SDS011;6714;53.056;8.690;2023-06-22T05:35:50;24.50;;;21.73;;
13291;SDS011;6714;53.056;8.690;2023-06-22T05:38:32;19.73;;;17.63;;
13291;SDS011;6714;53.056;8.690;2023-06-22T05:41:14;18.50;;;16.53;;
13291;SDS011;6714;53.056;8.690;2023-06-22T05:43:57;22.67;;;19.90;;
13291;SDS011;6714;53.056;8.690;2023-06-22T05:46:40;13.03;;;11.23;;
13291;SDS011;6714;53.056;8.690;2023-06-22T05:49:24;18.07;;;16.17;;
13291;SDS011;6714;53.056;8.690;2023-06-22T05:52:11;15.00;;;12.03;;
13291;SDS011;6714;53.056;8.690;2023-06-22T05:54:53;13.10;;;11.70;;
13291;SDS011;6714;53.056;8.690;2023-06-22T05:57:36;13.27;;;11.87;;
13291;SDS011;6714;53.056;8.690;2023-06-22T06:00:18;15.93;;;14.00;;
13291;SDS011;6714;53.056;8.690;2023-06-22T06:03:02;11.10;;;9.53;;
13291;SDS011;6714;53.056;8.690;2023-06-22T06:05:44;14.13;;;11.13;;
13291;SDS011;6714;53.056;8.690;2023-06-22T06:08:28;10.70;;;9.60;;
13291;SDS011;6714;53.056;8.690;2023-06-22T06:11:10;13.03;;;11.73;;
13291;SDS011;6714;53.056;8.690;2023-06-22T06:13:52;12.50;;;11.17;;
13291;SDS011;6714;53.056;8.690;2023-06-22T06:16:34;13.03;;;11.73;;
13291;SDS011;6714;53.056;8.690;2023-06-22T06:19:17;11.20;;;9.93;;
13291;SDS011;6714;53.056;8.690;2023-06-22T06:21:59;10.83;;;9.73;;
13291;SDS011;6714;53.056;8.690;2023-06-22T06:24:42;11.13;;;10.07;;
13291;SDS011;6714;53.056;8.690;2023-06-22T06:27:27;8.77;;;7.90;;
13291;SDS011;6714;53.056;8.690;2023-06-22T06:30:10;11.77;;;10.57;;
13291;SDS011;6714;53.056;8.690;2023-06-22T06:32:52;11.70;;;10.50;;
13291;SDS011;6714;53.056;8.690;2023-06-22T06:35:35;14.23;;;12.80;;
13291;SDS011;6714;53.056;8.690;2023-06-22T06:38:17;12.67;;;11.37;;
13291;SDS011;6714;53.056;8.690;2023-06-22T06:41:01;12.47;;;11.27;;
13291;SDS011;6714;53.056;8.690;2023-06-22T06:43:43;10.40;;;9.40;;
13291;SDS011;6714;53.056;8.690;2023-06-22T06:46:25;12.17;;;10.50;;
13291;SDS011;6714;53.056;8.690;2023-06-22T06:49:07;11.47;;;10.37;;
13291;SDS011;6714;53.056;8.690;2023-06-22T06:51:50;15.40;;;13.47;;
13291;SDS011;6714;53.056;8.690;2023-06-22T06:54:32;10.90;;;9.80;;
13291;SDS011;6714;53.056;8.690;2023-06-22T06:57:16;13.47;;;12.10;;
13291;SDS011;6714;53.056;8.690;2023-06-22T06:59:58;9.43;;;8.53;;
13291;SDS011;6714;53.056;8.690;2023-06-22T07:02:40;9.30;;;8.40;;
13291;SDS011;6714;53.056;8.690;2023-06-22T07:05:23;9.43;;;8.10;;
13291;SDS011;6714;53.056;8.690;2023-06-22T07:08:05;10.40;;;9.40;;
13291;SDS011;6714;53.056;8.690;2023-06-22T07:10:48;9.60;;;8.70;;
13291;SDS011;6714;53.056;8.690;2023-06-22T07:13:31;12.00;;;10.40;;
13291;SDS011;6714;53.056;8.690;2023-06-22T07:16:14;10.43;;;9.43;;
13291;SDS011;6714;53.056;8.690;2023-06-22T07:18:56;9.67;;;8.73;;
13291;SDS011;6714;53.056;8.690;2023-06-22T07:21:38;11.20;;;10.00;;
13291;SDS011;6714;53.056;8.690;2023-06-22T07:24:20;12.00;;;10.90;;
13291;SDS011;6714;53.056;8.690;2023-06-22T07:27:03;8.73;;;7.73;;
13291;SDS011;6714;53.056;8.690;2023-06-22T07:29:48;10.37;;;9.37;;
13291;SDS011;6714;53.056;8.690;2023-06-22T07:32:30;8.97;;;8.07;;
13291;SDS011;6714;53.056;8.690;2023-06-22T07:35:13;10.00;;;9.00;;
13291;SDS011;6714;53.056;8.690;2023-06-22T07:37:56;9.03;;;8.20;;
13291;SDS011;6714;53.056;8.690;2023-06-22T07:40:39;13.93;;;12.53;;
13291;SDS011;6714;53.056;8.690;2023-06-22T07:43:21;7.47;;;6.67;;
13291;SDS011;6714;53.056;8.690;2023-06-22T07:46:05;12.20;;;10.97;;
13291;SDS011;6714;53.056;8.690;2023-06-22T07:48:48;10.07;;;9.07;;
13291;SDS011;6714;53.056;8.690;2023-06-22T07:51:30;8.33;;;7.10;;
13291;SDS011;6714;53.056;8.690;2023-06-22T07:54:12;7.50;;;6.80;;
13291;SDS011;6714;53.056;8.690;2023-06-22T07:56:55;7.77;;;7.07;;
13291;SDS011;6714;53.056;8.690;2023-06-22T07:59:38;9.77;;;8.87;;
13291;SDS011;6714;53.056;8.690;2023-06-22T08:02:22;5.80;;;5.30;;
13291;SDS011;6714;53.056;8.690;2023-06-22T08:05:04;7.03;;;6.20;;
13291;SDS011;6714;53.056;8.690;2023-06-22T08:07:48;6.70;;;6.00;;
13291;SDS011;6714;53.056;8.690;2023-06-22T08:10:30;8.77;;;7.97;;
13291;SDS011;6714;53.056;8.690;2023-06-22T08:13:12;9.60;;;8.60;;
13291;SDS011;6714;53.056;8.690;2023-06-22T08:15:55;7.27;;;6.50;;
13291;SDS011;6714;53.056;8.690;2023-06-22T08:18:38;8.80;;;7.90;;
13291;SDS011;6714;53.056;8.690;2023-06-22T08:21:21;9.63;;;8.63;;
13291;SDS011;6714;53.056;8.690;2023-06-22T08:24:03;8.63;;;7.80;;
13291;SDS011;6714;53.056;8.690;2023-06-22T08:26:46;7.57;;;6.73;;
13291;SDS011;6714;53.056;8.690;2023-06-22T08:29:28;6.90;;;6.23;;
13291;SDS011;6714;53.056;8.690;2023-06-22T08:32:10;6.37;;;5.77;;
13291;SDS011;6714;53.056;8.690;2023-06-22T08:34:54;4.77;;;4.37;;
13291;SDS011;6714;53.056;8.690;2023-06-22T08:37:36;5.53;;;5.07;;
13291;SDS011;6714;53.056;8.690;2023-06-22T08:40:19;5.20;;;4.70;;
13291;SDS011;6714;53.056;8.690;2023-06-22T08:43:02;5.80;;;5.27;;
13291;SDS011;6714;53.056;8.690;2023-06-22T08:45:45;4.82;;;4.38;;
13291;SDS011;6714;53.056;8.690;2023-06-22T08:48:27;4.70;;;4.30;;
13291;SDS011;6714;53.056;8.690;2023-06-22T08:51:10;6.50;;;5.47;;
13291;SDS011;6714;53.056;8.690;2023-06-22T08:53:54;5.22;;;4.82;;
13291;SDS011;6714;53.056;8.690;2023-06-22T08:56:36;4.65;;;4.25;;
13291;SDS011;6714;53.056;8.690;2023-06-22T08:59:18;4.28;;;3.88;;
13291;SDS011;6714;53.056;8.690;2023-06-22T09:02:01;5.10;;;4.70;;
13291;SDS011;6714;53.056;8.690;2023-06-22T09:04:43;3.97;;;3.67;;
13291;SDS011;6714;53.056;8.690;2023-06-22T09:07:26;4.72;;;4.30;;
13291;SDS011;6714;53.056;8.690;2023-06-22T09:10:09;5.43;;;4.93;;
13291;SDS011;6714;53.056;8.690;2023-06-22T09:12:51;4.97;;;4.57;;
13291;SDS011;6714;53.056;8.690;2023-06-22T09:15:33;4.00;;;3.63;;
13291;SDS011;6714;53.056;8.690;2023-06-22T09:18:16;3.28;;;3.08;;
13291;SDS011;6714;53.056;8.690;2023-06-22T09:20:58;3.00;;;2.80;;
13291;SDS011;6714;53.056;8.690;2023-06-22T09:23:42;3.88;;;3.45;;
13291;SDS011;6714;53.056;8.690;2023-06-22T09:26:25;3.20;;;3.00;;
13291;SDS011;6714;53.056;8.690;2023-06-22T09:29:08;3.47;;;3.20;;
13291;SDS011;6714;53.056;8.690;2023-06-22T09:31:50;3.22;;;2.95;;
13291;SDS011;6714;53.056;8.690;2023-06-22T09:34:33;3.75;;;3.50;;
13291;SDS011;6714;53.056;8.690;2023-06-22T09:37:15;3.90;;;3.55;;
13291;SDS011;6714;53.056;8.690;2023-06-22T09:39:59;3.78;;;3.58;;
13291;SDS011;6714;53.056;8.690;2023-06-22T09:42:41;4.15;;;3.85;;
13291;SDS011;6714;53.056;8.690;2023-06-22T09:45:23;3.45;;;3.20;;
13291;SDS011;6714;53.056;8.690;2023-06-22T09:48:06;3.42;;;3.22;;
13291;SDS011;6714;53.056;8.690;2023-06-22T09:50:49;3.40;;;3.20;;
13291;SDS011;6714;53.056;8.690;2023-06-22T09:53:32;3.20;;;3.08;;
13291;SDS011;6714;53.056;8.690;2023-06-22T09:56:16;3.10;;;2.90;;
13291;SDS011;6714;53.056;8.690;2023-06-22T09:58:58;3.40;;;3.20;;
13291;SDS011;6714;53.056;8.690;2023-06-22T10:01:40;4.18;;;3.90;;
13291;SDS011;6714;53.056;8.690;2023-06-22T10:04:23;4.55;;;4.18;;
13291;SDS011;6714;53.056;8.690;2023-06-22T10:07:05;4.03;;;3.72;;
13291;SDS011;6714;53.056;8.690;2023-06-22T10:09:48;4.25;;;2.88;;
13291;SDS011;6714;53.056;8.690;2023-06-22T10:12:32;3.92;;;3.70;;
13291;SDS011;6714;53.056;8.690;2023-06-22T10:15:14;4.25;;;3.95;;
13291;SDS011;6714;53.056;8.690;2023-06-22T10:17:57;5.97;;;4.88;;
13291;SDS011;6714;53.056;8.690;2023-06-22T10:20:39;8.38;;;6.20;;
13291;SDS011;6714;53.056;8.690;2023-06-22T10:23:21;4.38;;;3.97;;
13291;SDS011;6714;53.056;8.690;2023-06-22T10:26:04;4.68;;;4.28;;
13291;SDS011;6714;53.056;8.690;2023-06-22T10:28:48;4.13;;;3.88;;
13291;SDS011;6714;53.056;8.690;2023-06-22T10:31:30;3.78;;;3.53;;
13291;SDS011;6714;53.056;8.690;2023-06-22T10:34:13;4.20;;;3.90;;
13291;SDS011;6714;53.056;8.690;2023-06-22T10:36:55;4.10;;;3.80;;
13291;SDS011;6714;53.056;8.690;2023-06-22T10:39:38;3.75;;;3.45;;
13291;SDS011;6714;53.056;8.690;2023-06-22T10:42:20;4.63;;;4.32;;
13291;SDS011;6714;53.056;8.690;2023-06-22T10:45:04;4.20;;;3.90;;
13291;SDS011;6714;53.056;8.690;2023-06-22T10:47:47;3.90;;;3.70;;
13291;SDS011;6714;53.056;8.690;2023-06-22T10:50:29;3.60;;;3.40;;
13291;SDS011;6714;53.056;8.690;2023-06-22T10:53:12;3.63;;;3.42;;
13291;SDS011;6714;53.056;8.690;2023-06-22T10:55:54;4.03;;;3.83;;
13291;SDS011;6714;53.056;8.690;2023-06-22T10:58:37;4.30;;;3.97;;
13291;SDS011;6714;53.056;8.690;2023-06-22T11:01:21;3.72;;;3.53;;
13291;SDS011;6714;53.056;8.690;2023-06-22T11:04:03;4.13;;;3.83;;
13291;SDS011;6714;53.056;8.690;2023-06-22T11:06:46;4.05;;;3.75;;
13291;SDS011;6714;53.056;8.690;2023-06-22T11:09:28;3.50;;;3.25;;
13291;SDS011;6714;53.056;8.690;2023-06-22T11:12:12;3.30;;;3.10;;
13291;SDS011;6714;53.056;8.690;2023-06-22T11:14:54;3.35;;;3.15;;
13291;SDS011;6714;53.056;8.690;2023-06-22T11:17:38;3.33;;;3.13;;
13291;SDS011;6714;53.056;8.690;2023-06-22T11:20:21;3.15;;;2.95;;
13291;SDS011;6714;53.056;8.690;2023-06-22T11:23:03;3.25;;;3.10;;
13291;SDS011;6714;53.056;8.690;2023-06-22T11:25:47;4.05;;;3.78;;
13291;SDS011;6714;53.056;8.690;2023-06-22T11:28:29;3.90;;;3.70;;
13291;SDS011;6714;53.056;8.690;2023-06-22T11:31:11;3.60;;;3.40;;
13291;SDS011;6714;53.056;8.690;2023-06-22T11:33:55;3.75;;;3.45;;
13291;SDS011;6714;53.056;8.690;2023-06-22T11:36:38;3.50;;;3.30;;
13291;SDS011;6714;53.056;8.690;2023-06-22T11:39:20;3.13;;;2.92;;
13291;SDS011;6714;53.056;8.690;2023-06-22T11:42:02;4.50;;;4.10;;
13291;SDS011;6714;53.056;8.690;2023-06-22T11:44:45;3.58;;;3.38;;
13291;SDS011;6714;53.056;8.690;2023-06-22T11:47:28;3.40;;;2.95;;
13291;SDS011;6714;53.056;8.690;2023-06-22T11:50:12;4.43;;;4.13;;
13291;SDS011;6714;53.056;8.690;2023-06-22T11:52:55;3.30;;;3.10;;
13291;SDS011;6714;53.056;8.690;2023-06-22T11:55:37;3.28;;;3.08;;
13291;SDS011;6714;53.056;8.690;2023-06-22T11:58:19;3.90;;;3.63;;
13291;SDS011;6714;53.056;8.690;2023-06-22T12:01:02;3.33;;;3.20;;
13291;SDS011;6714;53.056;8.690;2023-06-22T12:03:45;3.45;;;3.25;;
13291;SDS011;6714;53.056;8.690;2023-06-22T12:06:29;4.20;;;3.80;;
13291;SDS011;6714;53.056;8.690;2023-06-22T12:09:12;3.97;;;3.78;;
13291;SDS011;6714;53.056;8.690;2023-06-22T12:11:54;3.70;;;3.50;;
13291;SDS011;6714;53.056;8.690;2023-06-22T12:14:37;3.60;;;3.40;;
13291;SDS011;6714;53.056;8.690;2023-06-22T12:17:19;3.55;;;3.35;;
13291;SDS011;6714;53.056;8.690;2023-06-22T12:20:02;3.17;;;3.08;;
13291;SDS011;6714;53.056;8.690;2023-06-22T12:22:47;3.22;;;3.03;;
13291;SDS011;6714;53.056;8.690;2023-06-22T12:25:31;3.60;;;3.40;;
13291;SDS011;6714;53.056;8.690;2023-06-22T12:28:14;3.70;;;3.47;;
13291;SDS011;6714;53.056;8.690;2023-06-22T12:30:56;3.30;;;3.10;;
13291;SDS011;6714;53.056;8.690;2023-06-22T12:33:39;3.80;;;3.60;;
13291;SDS011;6714;53.056;8.690;2023-06-22T12:36:21;3.47;;;3.17;;
13291;SDS011;6714;53.056;8.690;2023-06-22T12:39:06;3.15;;;3.05;;
13291;SDS011;6714;53.056;8.690;2023-06-22T12:41:48;3.40;;;3.20;;
13291;SDS011;6714;53.056;8.690;2023-06-22T12:44:30;3.30;;;3.10;;
13291;SDS011;6714;53.056;8.690;2023-06-22T12:47:13;3.33;;;3.17;;
13291;SDS011;6714;53.056;8.690;2023-06-22T12:49:55;3.55;;;3.35;;
13291;SDS011;6714;53.056;8.690;2023-06-22T12:52:38;4.00;;;3.60;;
13291;SDS011;6714;53.056;8.690;2023-06-22T12:55:22;3.60;;;3.40;;
13291;SDS011;6714;53.056;8.690;2023-06-22T12:58:05;3.60;;;3.40;;
13291;SDS011;6714;53.056;8.690;2023-06-22T13:00:47;3.60;;;3.40;;
13291;SDS011;6714;53.056;8.690;2023-06-22T13:03:29;3.67;;;3.47;;
13291;SDS011;6714;53.056;8.690;2023-06-22T13:06:11;3.95;;;3.60;;
13291;SDS011;6714;53.056;8.690;2023-06-22T13:08:54;3.55;;;3.35;;
13291;SDS011;6714;53.056;8.690;2023-06-22T13:11:37;3.95;;;3.70;;
13291;SDS011;6714;53.056;8.690;2023-06-22T13:14:20;3.75;;;3.55;;
13291;SDS011;6714;53.056;8.690;2023-06-22T13:17:02;4.03;;;3.72;;
13291;SDS011;6714;53.056;8.690;2023-06-22T13:19:45;4.00;;;3.80;;
13291;SDS011;6714;53.056;8.690;2023-06-22T13:22:28;3.85;;;3.65;;
13291;SDS011;6714;53.056;8.690;2023-06-22T13:25:11;3.85;;;3.65;;
13291;SDS011;6714;53.056;8.690;2023-06-22T13:27:55;3.97;;;3.78;;
13291;SDS011;6714;53.056;8.690;2023-06-22T13:30:37;3.90;;;3.70;;
13291;SDS011;6714;53.056;8.690;2023-06-22T13:33:19;4.13;;;3.83;;
13291;SDS011;6714;53.056;8.690;2023-06-22T13:36:01;4.07;;;3.88;;
13291;SDS011;6714;53.056;8.690;2023-06-22T13:38:46;3.83;;;3.63;;
13291;SDS011;6714;53.056;8.690;2023-06-22T13:41:28;4.80;;;4.32;;
13291;SDS011;6714;53.056;8.690;2023-06-22T13:44:12;4.53;;;4.22;;
13291;SDS011;6714;53.056;8.690;2023-06-22T13:46:54;4.70;;;4.40;;
13291;SDS011;6714;53.056;8.690;2023-06-22T13:49:36;4.20;;;3.90;;
13291;SDS011;6714;53.056;8.690;2023-06-22T13:52:18;3.90;;;3.70;;
13291;SDS011;6714;53.056;8.690;2023-06-22T13:55:01;4.10;;;3.90;;
13291;SDS011;6714;53.056;8.690;2023-06-22T13:57:44;3.92;;;3.63;;
13291;SDS011;6714;53.056;8.690;2023-06-22T14:00:28;4.80;;;4.50;;
13291;SDS011;6714;53.056;8.690;2023-06-22T14:03:10;4.47;;;4.18;;
13291;SDS011;6714;53.056;8.690;2023-06-22T14:05:56;4.38;;;4.18;;
13291;SDS011;6714;53.056;8.690;2023-06-22T14:08:38;4.88;;;4.57;;
13291;SDS011;6714;53.056;8.690;2023-06-22T14:11:20;4.07;;;3.88;;
13291;SDS011;6714;53.056;8.690;2023-06-22T14:14:03;5.50;;;5.03;;
13291;SDS011;6714;53.056;8.690;2023-06-22T14:16:47;4.88;;;4.57;;
13291;SDS011;6714;53.056;8.690;2023-06-22T14:19:29;4.80;;;4.50;;
13291;SDS011;6714;53.056;8.690;2023-06-22T14:22:12;4.75;;;4.45;;
13291;SDS011;6714;53.056;8.690;2023-06-22T14:24:54;5.30;;;4.90;;
13291;SDS011;6714;53.056;8.690;2023-06-22T14:27:37;4.80;;;4.50;;
13291;SDS011;6714;53.056;8.690;2023-06-22T14:30:19;4.85;;;4.55;;
13291;SDS011;6714;53.056;8.690;2023-06-22T14:33:03;4.95;;;4.65;;
13291;SDS011;6714;53.056;8.690;2023-06-22T14:35:45;4.93;;;4.63;;
13291;SDS011;6714;53.056;8.690;2023-06-22T14:38:28;5.22;;;4.88;;
13291;SDS011;6714;53.056;8.690;2023-06-22T14:41:10;4.80;;;4.50;;
13291;SDS011;6714;53.056;8.690;2023-06-22T14:43:52;5.28;;;4.90;;
13291;SDS011;6714;53.056;8.690;2023-06-22T14:46:34;5.05;;;4.65;;
13291;SDS011;6714;53.056;8.690;2023-06-22T14:49:19;4.80;;;4.50;;
13291;SDS011;6714;53.056;8.690;2023-06-22T14:52:01;5.13;;;4.72;;
13291;SDS011;6714;53.056;8.690;2023-06-22T14:54:44;5.38;;;4.97;;
13291;SDS011;6714;53.056;8.690;2023-06-22T14:57:26;6.47;;;5.97;;
13291;SDS011;6714;53.056;8.690;2023-06-22T15:00:09;5.30;;;4.90;;
13291;SDS011;6714;53.056;8.690;2023-06-22T15:02:51;5.22;;;4.93;;
13291;SDS011;6714;53.056;8.690;2023-06-22T15:05:35;6.55;;;6.05;;
13291;SDS011;6714;53.056;8.690;2023-06-22T15:08:17;5.45;;;5.05;;
13291;SDS011;6714;53.056;8.690;2023-06-22T15:10:59;5.90;;;5.50;;
13291;SDS011;6714;53.056;8.690;2023-06-22T15:13:42;5.03;;;4.65;;
13291;SDS011;6714;53.056;8.690;2023-06-22T15:16:24;5.80;;;5.32;;
13291;SDS011;6714;53.056;8.690;2023-06-22T15:19:06;5.72;;;5.32;;
13291;SDS011;6714;53.056;8.690;2023-06-22T15:21:51;6.15;;;5.65;;
13291;SDS011;6714;53.056;8.690;2023-06-22T15:24:33;6.20;;;5.70;;
13291;SDS011;6714;53.056;8.690;2023-06-22T15:27:15;5.45;;;5.15;;
13291;SDS011;6714;53.056;8.690;2023-06-22T15:29:57;6.30;;;5.82;;
13291;SDS011;6714;53.056;8.690;2023-06-22T15:32:41;6.13;;;5.72;;
13291;SDS011;6714;53.056;8.690;2023-06-22T15:35:24;6.32;;;5.82;;
13291;SDS011;6714;53.056;8.690;2023-06-22T15:38:08;5.45;;;5.05;;
13291;SDS011;6714;53.056;8.690;2023-06-22T15:40:50;6.57;;;6.00;;
13291;SDS011;6714;53.056;8.690;2023-06-22T15:43:32;5.70;;;5.30;;
13291;SDS011;6714;53.056;8.690;2023-06-22T15:46:15;5.85;;;5.43;;
13291;SDS011;6714;53.056;8.690;2023-06-22T15:48:57;6.07;;;5.68;;
13291;SDS011;6714;53.056;8.690;2023-06-22T15:51:39;6.00;;;5.60;;
13291;SDS011;6714;53.056;8.690;2023-06-22T15:54:23;6.10;;;5.68;;
13291;SDS011;6714;53.056;8.690;2023-06-22T15:57:05;5.95;;;5.55;;
13291;SDS011;6714;53.056;8.690;2023-06-22T15:59:47;6.13;;;5.72;;
13291;SDS011;6714;53.056;8.690;2023-06-22T16:02:30;6.30;;;5.80;;
13291;SDS011;6714;53.056;8.690;2023-06-22T16:05:12;5.55;;;5.13;;
13291;SDS011;6714;53.056;8.690;2023-06-22T16:07:55;5.82;;;5.43;;
13291;SDS011;6714;53.056;8.690;2023-06-22T16:10:40;6.07;;;5.57;;
13291;SDS011;6714;53.056;8.690;2023-06-22T16:13:22;6.00;;;5.60;;
13291;SDS011;6714;53.056;8.690;2023-06-22T16:16:04;5.90;;;5.50;;
13291;SDS011;6714;53.056;8.690;2023-06-22T16:18:47;6.43;;;5.90;;
13291;SDS011;6714;53.056;8.690;2023-06-22T16:21:29;6.25;;;5.78;;
13291;SDS011;6714;53.056;8.690;2023-06-22T16:24:11;5.63;;;5.22;;
13291;SDS011;6714;53.056;8.690;2023-06-22T16:26:54;6.68;;;6.15;;
13291;SDS011;6714;53.056;8.690;2023-06-22T16:29:37;6.80;;;6.30;;
13291;SDS011;6714;53.056;8.690;2023-06-22T16:32:19;6.47;;;5.97;;